Time;durP1;ratioP1;P1;durP2;ratioP2;P2;SDS_P1;SDS_P2;PMS_P1;PMS_P2;Temp;Humidity;BMP_temperature;BMP_pressure;BME280_temperature;BME280_humidity;BME280_pressure;Samples;Min_cycle;Max_cycle;Signal;HPM_P1;HPM_P2
2022/06/22 00:01:51;;;;;;;9.98;5.53;;;;;;;14.09;68.51;101268.63;5065953;28;20029;-74
2022/06/22 00:04:22;;;;;;;8.32;5.10;;;;;;;14.01;68.53;101276.69;5068415;28;20028;-75
2022/06/22 00:07:33;;;;;;;8.65;5.70;;;;;;;13.96;67.36;101278.63;5066830;28;20486;-74
2022/06/22 00:10:16;;;;;;;8.10;5.30;;;;;;;13.89;67.38;101282.34;5066562;28;20092;-74
2022/06/22 00:12:46;;;;;;;8.65;5.93;;;;;;;13.83;68.33;101266.88;5064569;28;20071;-74
2022/06/22 00:15:38;;;;;;;10.07;6.07;;;;;;;13.79;67.16;101272.19;5061343;28;20047;-74
2022/06/22 00:18:21;;;;;;;10.90;6.88;;;;;;;13.72;68.03;101262.81;5065617;28;20029;-74
2022/06/22 00:20:56;;;;;;;12.68;7.78;;;;;;;13.67;69.29;101267.34;5061033;28;20475;-74
2022/06/22 00:23:34;;;;;;;12.57;7.50;;;;;;;13.62;69.09;101258.81;5064710;28;20027;-74
2022/06/22 00:26:27;;;;;;;12.15;7.20;;;;;;;13.58;67.36;101254.56;5060547;28;20411;-74
2022/06/22 00:29:16;;;;;;;13.00;7.47;;;;;;;13.54;68.14;101252.94;5064509;28;20029;-74
2022/06/22 00:31:59;;;;;;;10.90;7.28;;;;;;;13.49;68.09;101243.50;5062251;28;20021;-75
2022/06/22 00:34:31;;;;;;;12.63;7.65;;;;;;;13.45;69.03;101241.91;5064636;28;20693;-74
2022/06/22 00:37:05;;;;;;;12.52;7.90;;;;;;;13.40;70.00;101238.56;5061368;28;20027;-74
2022/06/22 00:39:30;;;;;;;10.35;7.38;;;;;;;13.35;70.68;101243.91;5063643;28;20070;-74
2022/06/22 00:42:00;;;;;;;11.07;6.93;;;;;;;13.33;71.19;101240.47;5065224;28;20031;-74
2022/06/22 00:44:30;;;;;;;10.77;7.03;;;;;;;13.30;71.61;101240.56;5066445;28;20099;-74
2022/06/22 00:47:10;;;;;;;10.60;6.55;;;;;;;13.30;70.74;101245.81;5064780;28;20105;-74
2022/06/22 00:49:36;;;;;;;10.43;7.35;;;;;;;13.29;71.78;101240.63;5063399;28;20063;-74
2022/06/22 00:52:07;;;;;;;11.90;7.20;;;;;;;13.30;71.40;101242.34;5063574;28;20118;-75
2022/06/22 00:54:34;;;;;;;11.82;6.65;;;;;;;13.28;71.68;101239.75;5065350;28;20108;-74
2022/06/22 00:57:07;;;;;;;9.13;6.55;;;;;;;13.23;71.58;101246.03;5063275;28;20028;-74
2022/06/22 00:59:35;;;;;;;10.52;6.22;;;;;;;13.21;72.16;101254.78;5064365;28;20495;-74
2022/06/22 01:02:19;;;;;;;8.25;6.35;;;;;;;13.16;72.10;101240.16;5060250;28;20029;-74
2022/06/22 01:04:59;;;;;;;9.98;6.03;;;;;;;13.16;72.14;101230.53;5062804;28;20043;-74
2022/06/22 01:07:40;;;;;;;7.70;6.00;;;;;;;13.15;71.52;101231.44;5070028;28;20056;-74
2022/06/22 01:10:14;;;;;;;8.63;6.05;;;;;;;13.11;72.83;101227.22;5063697;28;20025;-74
2022/06/22 01:13:08;;;;;;;8.73;5.80;;;;;;;13.09;72.50;101243.81;5061462;28;20028;-74
2022/06/22 01:15:40;;;;;;;9.20;5.63;;;;;;;13.05;73.12;101238.72;5062579;28;20048;-74
2022/06/22 01:18:30;;;;;;;8.82;6.05;;;;;;;13.05;73.04;101245.69;5063057;28;20067;-74
2022/06/22 01:21:04;;;;;;;7.65;5.60;;;;;;;13.03;72.78;101240.53;5065826;28;20120;-74
2022/06/22 01:23:44;;;;;;;8.63;6.05;;;;;;;13.05;72.47;101243.06;5060835;28;20500;-74
2022/06/22 01:26:37;;;;;;;9.40;6.00;;;;;;;13.03;72.03;101237.91;5064566;28;20040;-74
2022/06/22 01:29:11;;;;;;;8.18;5.95;;;;;;;12.98;73.70;101241.56;5067738;28;20176;-75
2022/06/22 01:31:44;;;;;;;9.13;5.85;;;;;;;12.97;74.20;101256.34;5066229;28;20047;-74
2022/06/22 01:34:16;;;;;;;7.82;5.68;;;;;;;12.94;74.04;101251.22;5066279;28;20391;-75
2022/06/22 01:36:41;;;;;;;8.43;5.75;;;;;;;12.90;74.25;101245.25;5066869;28;20028;-74
2022/06/22 01:39:11;;;;;;;8.27;5.68;;;;;;;12.88;74.61;101248.81;5070461;28;20506;-74
2022/06/22 01:41:49;;;;;;;8.35;5.85;;;;;;;12.86;75.09;101245.38;5063206;28;20025;-74
2022/06/22 01:44:50;;;;;;;8.32;5.70;;;;;;;12.85;73.87;101241.91;5063293;28;20033;-74
2022/06/22 01:47:24;;;;;;;7.88;5.70;;;;;;;12.83;74.76;101228.03;5057692;28;20434;-74
2022/06/22 01:50:03;;;;;;;7.80;5.53;;;;;;;12.82;74.09;101220.25;5066893;28;20031;-74
2022/06/22 01:52:53;;;;;;;7.88;5.43;;;;;;;12.81;73.49;101208.94;5061057;28;20067;-74
2022/06/22 01:55:35;;;;;;;7.25;5.60;;;;;;;12.82;74.92;101215.88;5067146;28;20035;-75
2022/06/22 01:58:19;;;;;;;8.85;5.50;;;;;;;12.82;74.10;101221.09;5061582;28;20049;-74
2022/06/22 02:00:53;;;;;;;8.18;5.60;;;;;;;12.80;75.06;101215.09;5060307;28;20036;-74
2022/06/22 02:03:37;;;;;;;9.82;5.95;;;;;;;12.83;74.09;101212.34;5064673;28;20017;-74
2022/06/22 02:09:16;;;;;;;7.45;5.45;;;;;;;12.85;76.13;101210.56;5062963;28;20036;-74
2022/06/22 02:11:51;;;;;;;9.10;6.10;;;;;;;12.87;75.95;101211.38;5067686;28;20028;-74
2022/06/22 02:14:22;;;;;;;9.57;6.03;;;;;;;12.89;76.26;101214.81;5064515;28;20055;-74
2022/06/22 02:16:53;;;;;;;8.00;5.90;;;;;;;12.91;76.15;101209.53;5062106;28;20552;-74
2022/06/22 02:19:20;;;;;;;7.55;5.75;;;;;;;12.92;76.26;101218.22;5067458;28;20035;-74
2022/06/22 02:21:52;;;;;;;9.13;5.97;;;;;;;12.90;76.34;101219.13;5064929;28;20028;-74
2022/06/22 02:24:27;;;;;;;11.35;6.07;;;;;;;12.91;76.46;101219.97;5069470;28;20016;-74
2022/06/22 02:27:22;;;;;;;8.80;6.20;;;;;;;12.92;75.44;101215.63;5082225;28;20032;-74
2022/06/22 02:29:50;;;;;;;9.10;5.95;;;;;;;12.89;76.21;101211.34;5063034;28;20557;-74
2022/06/22 02:32:20;;;;;;;12.88;6.22;;;;;;;12.88;76.28;101210.47;5068632;28;20033;-74
2022/06/22 02:34:51;;;;;;;8.65;6.05;;;;;;;12.87;76.21;101206.16;5067407;28;20164;-74
2022/06/22 02:37:18;;;;;;;9.30;6.20;;;;;;;12.88;76.58;101189.59;5069433;28;20021;-74
2022/06/22 02:39:48;;;;;;;8.55;6.13;;;;;;;12.87;76.78;101179.19;5069783;28;20016;-74
2022/06/22 02:44:59;;;;;;;8.68;6.70;;;;;;;12.84;76.83;101169.69;5064285;28;20077;-75
2022/06/22 02:47:31;;;;;;;7.43;6.15;;;;;;;12.83;76.95;101173.19;5066966;28;20093;-74
2022/06/22 02:50:21;;;;;;;11.43;5.95;;;;;;;12.82;76.94;101171.47;5066264;28;20059;-74
2022/06/22 02:52:52;;;;;;;9.18;6.22;;;;;;;12.79;77.26;101173.34;5068184;28;20035;-74
2022/06/22 02:55:21;;;;;;;7.88;5.63;;;;;;;12.77;77.20;101188.19;5070167;28;20036;-74
2022/06/22 02:57:52;;;;;;;9.15;6.50;;;;;;;12.76;77.22;101189.97;5066069;28;20058;-74
2022/06/22 03:00:23;;;;;;;8.63;5.75;;;;;;;12.73;77.26;101183.06;5065126;28;20028;-74
2022/06/22 03:03:05;;;;;;;8.13;6.50;;;;;;;12.71;76.95;101187.50;5065082;28;20050;-74
2022/06/22 03:05:31;;;;;;;11.07;6.25;;;;;;;12.69;76.81;101193.63;5066896;28;20396;-74
2022/06/22 03:07:59;;;;;;;10.27;6.30;;;;;;;12.65;77.41;101200.72;5068553;28;20532;-74
2022/06/22 03:10:36;;;;;;;9.63;6.50;;;;;;;12.62;77.28;101211.22;5061635;28;20020;-74
2022/06/22 03:13:01;;;;;;;7.25;5.78;;;;;;;12.60;76.75;101213.03;5064209;28;20021;-75
2022/06/22 03:15:30;;;;;;;8.15;6.00;;;;;;;12.59;77.09;101220.00;5075764;28;20380;-74
2022/06/22 03:17:59;;;;;;;8.45;6.15;;;;;;;12.58;77.07;101212.22;5067031;28;20157;-74
2022/06/22 03:20:32;;;;;;;9.68;6.20;;;;;;;12.58;77.08;101218.31;5064471;28;20529;-74
2022/06/22 03:23:14;;;;;;;10.75;6.28;;;;;;;12.60;76.63;101213.91;5066255;28;20020;-73
2022/06/22 03:25:51;;;;;;;11.02;6.20;;;;;;;12.62;76.88;101207.78;5065101;28;20487;-74
2022/06/22 03:28:21;;;;;;;9.93;6.47;;;;;;;12.60;76.54;101203.47;5058919;28;20035;-75
2022/06/22 03:30:51;;;;;;;9.70;6.93;;;;;;;12.60;76.88;101195.63;5066681;28;20021;-74
2022/06/22 03:33:24;;;;;;;9.02;6.63;;;;;;;12.58;77.05;101197.41;5065818;28;20028;-74
2022/06/22 03:35:55;;;;;;;12.13;6.75;;;;;;;12.56;77.59;101203.56;5063938;28;20036;-74
2022/06/22 03:38:25;;;;;;;8.75;6.45;;;;;;;12.55;77.25;101196.66;5080796;28;20995;-74
2022/06/22 03:40:55;;;;;;;9.93;6.78;;;;;;;12.50;77.51;101199.38;5066220;28;20098;-74
2022/06/22 03:43:31;;;;;;;7.78;6.55;;;;;;;12.51;77.61;101190.66;5064630;28;20033;-74
2022/06/22 03:46:01;;;;;;;9.40;6.22;;;;;;;12.48;77.26;101190.72;5062833;28;20999;-74
2022/06/22 03:48:32;;;;;;;9.38;6.53;;;;;;;12.47;77.11;101182.97;5068009;28;20040;-74
2022/06/22 03:51:14;;;;;;;9.00;6.40;;;;;;;12.45;76.90;101176.03;5065201;28;20040;-74
2022/06/22 03:54:02;;;;;;;7.25;6.03;;;;;;;12.46;76.81;101182.13;5073473;28;20029;-74
2022/06/22 03:56:35;;;;;;;8.15;6.03;;;;;;;12.44;77.39;101178.69;5069651;28;20031;-74
2022/06/22 03:59:03;;;;;;;13.40;6.90;;;;;;;12.41;77.80;101179.63;5066308;28;20464;-74
2022/06/22 04:01:29;;;;;;;15.68;7.30;;;;;;;12.42;77.99;101177.88;5065567;28;20051;-74
2022/06/22 04:03:56;;;;;;;11.82;6.50;;;;;;;12.42;77.96;101178.72;5062947;28;20595;-74
2022/06/22 04:06:35;;;;;;;9.50;6.80;;;;;;;12.43;77.78;101174.38;5063924;28;20111;-74
2022/06/22 04:09:06;;;;;;;10.98;7.10;;;;;;;12.41;77.77;101177.00;5063940;28;20056;-74
2022/06/22 04:11:50;;;;;;;10.48;7.00;;;;;;;12.41;78.07;101173.56;5065835;28;20074;-74
2022/06/22 04:14:20;;;;;;;9.20;6.53;;;;;;;12.43;78.31;101171.75;5066019;28;20039;-74
2022/06/22 04:16:52;;;;;;;11.38;6.97;;;;;;;12.47;78.37;101175.13;5064459;28;20046;-74
2022/06/22 04:19:37;;;;;;;10.57;7.70;;;;;;;12.50;78.23;101170.66;5057783;28;20090;-74
2022/06/22 04:22:08;;;;;;;9.98;6.57;;;;;;;12.52;78.41;101166.25;5060692;28;20153;-74
2022/06/22 04:24:49;;;;;;;8.75;6.80;;;;;;;12.58;78.22;101176.53;5064999;28;20497;-74
2022/06/22 04:27:27;;;;;;;9.50;7.20;;;;;;;12.60;78.71;101185.19;5063413;28;20043;-74
2022/06/22 04:29:59;;;;;;;11.07;6.85;;;;;;;12.66;79.11;101186.75;5062243;28;20491;-74
2022/06/22 04:32:37;;;;;;;9.20;7.15;;;;;;;12.72;79.13;101198.78;5063676;28;20433;-74
2022/06/22 04:35:24;;;;;;;10.35;7.25;;;;;;;12.78;78.36;101188.16;5063560;28;20039;-74
2022/06/22 04:38:01;;;;;;;9.77;7.20;;;;;;;12.82;78.86;101184.53;5062471;28;20028;-74
2022/06/22 04:40:53;;;;;;;11.05;7.22;;;;;;;12.87;78.28;101190.50;5064726;28;20108;-75
2022/06/22 04:43:18;;;;;;;;;;;;;;;12.97;75.79;101187.63;5062121;28;20488;-74
2022/06/22 04:45:46;;;;;;;10.10;6.95;;;;;;;12.98;78.93;101205.00;5061530;28;19939;-74
2022/06/22 04:48:20;;;;;;;9.45;7.18;;;;;;;13.02;79.62;101201.38;5060880;28;20029;-74
2022/06/22 04:50:49;;;;;;;11.48;7.55;;;;;;;13.07;79.64;101202.09;5065292;28;20396;-74
2022/06/22 04:53:22;;;;;;;10.93;7.38;;;;;;;13.12;79.60;101208.03;5065691;28;20035;-75
2022/06/22 04:55:50;;;;;;;20.08;7.97;;;;;;;13.15;79.87;101200.09;5060276;28;20337;-74
2022/06/22 04:58:43;;;;;;;12.00;7.75;;;;;;;13.21;78.47;101197.28;5062364;28;20140;-74
2022/06/22 05:01:37;;;;;;;13.25;7.72;;;;;;;13.30;78.35;101203.16;5055725;28;20084;-75
2022/06/22 05:04:32;;;;;;;10.32;7.75;;;;;;;13.35;78.97;101203.84;5062645;28;20056;-74
2022/06/22 05:07:34;;;;;;;13.32;7.97;;;;;;;13.41;79.22;101219.38;5065097;28;20025;-75
2022/06/22 05:10:39;;;;;;;10.98;8.05;;;;;;;13.50;78.69;101223.44;5075349;28;20021;-74
2022/06/22 05:13:13;;;;;;;12.05;7.65;;;;;;;13.58;80.06;101223.19;5063247;28;20032;-74
2022/06/22 05:15:39;;;;;;;10.18;7.85;;;;;;;13.64;79.62;101223.84;5067383;28;20039;-74
2022/06/22 05:18:11;;;;;;;11.25;7.82;;;;;;;13.74;80.02;101224.41;5066810;28;20037;-74
2022/06/22 05:20:43;;;;;;;;;;;;;;;13.81;77.12;101225.94;5068346;28;20031;-74
2022/06/22 05:23:08;;;;;;;11.38;7.75;;;;;;;13.92;79.55;101235.16;5068139;28;20016;-74
2022/06/22 05:25:36;;;;;;;12.90;7.95;;;;;;;14.02;79.48;101241.78;5080919;28;20098;-74
2022/06/22 05:28:01;;;;;;;11.90;8.45;;;;;;;14.13;79.57;101240.59;5069249;28;20028;-75
2022/06/22 05:30:33;;;;;;;11.38;8.23;;;;;;;14.22;79.59;101237.63;5067658;28;20383;-74
2022/06/22 05:33:04;;;;;;;11.65;8.48;;;;;;;14.27;79.84;101239.19;5064440;28;20372;-74
2022/06/22 05:35:34;;;;;;;11.43;8.40;;;;;;;14.29;78.81;101241.75;5069514;28;20218;-74
2022/06/22 05:38:02;;;;;;;11.55;7.88;;;;;;;14.35;79.08;101244.16;5064098;28;20021;-74
2022/06/22 05:40:30;;;;;;;11.93;8.32;;;;;;;14.43;79.20;101246.53;5073118;28;20035;-74
2022/06/22 05:42:56;;;;;;;13.65;8.48;;;;;;;14.54;78.96;101230.41;5066135;28;20033;-74
2022/06/22 05:45:25;;;;;;;10.77;8.57;;;;;;;14.66;78.59;101232.59;5068201;28;20027;-74
2022/06/22 05:47:52;;;;;;;10.70;8.10;;;;;;;14.74;78.50;101234.09;5085063;28;20475;-74
2022/06/22 05:50:33;;;;;;;9.95;8.27;;;;;;;14.80;77.85;101233.88;5068453;28;20016;-74
2022/06/22 05:53:15;;;;;;;11.40;8.43;;;;;;;14.88;77.42;101239.66;5065417;28;20031;-75
2022/06/22 05:55:59;;;;;;;12.60;8.50;;;;;;;14.95;77.81;101238.53;5065733;28;20031;-74
2022/06/22 05:59:12;;;;;;;10.95;8.55;;;;;;;15.01;76.16;101238.31;5068064;28;20047;-75
2022/06/22 06:01:48;;;;;;;11.45;8.27;;;;;;;15.06;76.94;101247.75;5024132;28;20388;-74
2022/06/22 06:04:52;;;;;;;12.02;8.68;;;;;;;15.12;76.03;101247.53;5027340;28;20042;-75
2022/06/22 06:07:24;;;;;;;12.82;7.78;;;;;;;15.18;76.83;101263.88;4999746;28;20469;-75
2022/06/22 06:09:49;;;;;;;11.82;8.65;;;;;;;15.27;77.08;101252.16;5008300;28;20148;-74
2022/06/22 06:12:20;;;;;;;11.40;8.90;;;;;;;15.36;76.28;101257.97;5038945;28;20140;-74
2022/06/22 06:14:50;;;;;;;13.98;9.23;;;;;;;15.43;76.27;101254.19;5067877;28;20078;-75
2022/06/22 06:17:27;;;;;;;13.80;8.95;;;;;;;15.49;75.19;101259.19;5068541;28;20066;-74
2022/06/22 06:19:55;;;;;;;11.68;8.57;;;;;;;15.52;74.99;101261.72;5071505;28;20111;-75
2022/06/22 06:22:22;;;;;;;13.13;8.50;;;;;;;15.55;74.71;101258.94;5074013;28;20510;-74
2022/06/22 06:27:41;;;;;;;12.05;8.15;;;;;;;15.73;74.98;101264.34;5069689;28;20036;-74
2022/06/22 06:30:21;;;;;;;13.52;8.88;;;;;;;15.81;74.76;101264.03;5069585;28;20019;-74
2022/06/22 06:32:55;;;;;;;10.52;8.20;;;;;;;15.92;75.21;101267.13;5072590;28;20361;-75
2022/06/22 06:35:33;;;;;;;11.10;7.88;;;;;;;16.01;73.94;101265.91;5063801;28;20130;-75
2022/06/22 06:38:23;;;;;;;10.98;7.95;;;;;;;16.11;73.91;101266.34;5076191;28;20028;-75
2022/06/22 06:41:05;;;;;;;11.60;8.02;;;;;;;16.20;73.88;101255.47;5078619;28;20027;-74
2022/06/22 06:43:33;;;;;;;11.10;7.15;;;;;;;16.30;72.39;101263.78;5070662;28;20032;-74
2022/06/22 06:46:00;;;;;;;9.77;6.93;;;;;;;16.38;72.90;101259.06;5074848;28;20082;-74
2022/06/22 06:48:26;;;;;;;11.10;7.50;;;;;;;16.45;71.42;101265.75;5078317;28;20043;-74
2022/06/22 06:50:56;;;;;;;9.55;7.30;;;;;;;16.57;73.33;101263.53;5077417;28;20380;-74
2022/06/22 06:53:31;;;;;;;11.88;7.15;;;;;;;16.65;70.55;101258.75;5078325;28;20016;-74
2022/06/22 06:56:03;;;;;;;8.63;7.38;;;;;;;16.71;71.82;101255.88;5077968;28;20036;-74
2022/06/22 06:58:50;;;;;;;11.23;7.43;;;;;;;16.76;71.36;101240.72;5065612;28;20045;-75
2022/06/22 07:01:29;;;;;;;10.52;7.40;;;;;;;16.86;72.05;101237.69;5063998;28;20040;-74
2022/06/22 07:03:59;;;;;;;14.50;8.00;;;;;;;16.95;71.31;101237.28;5064100;28;20223;-74
2022/06/22 07:06:27;;;;;;;10.05;7.50;;;;;;;17.02;69.88;101230.84;5064685;28;21772;-75
2022/06/22 07:09:00;;;;;;;9.13;7.28;;;;;;;17.06;70.12;101229.78;5061500;28;20480;-74
2022/06/22 07:11:32;;;;;;;8.63;6.75;;;;;;;17.09;69.36;101224.34;5058120;28;20497;-75
2022/06/22 07:14:08;;;;;;;9.65;6.53;;;;;;;17.14;68.09;101230.25;5058877;28;20048;-75
2022/06/22 07:16:34;;;;;;;8.38;6.57;;;;;;;17.21;66.99;101227.34;5060336;28;20463;-74
2022/06/22 07:19:05;;;;;;;9.25;6.43;;;;;;;17.27;66.84;101227.91;5062151;28;20020;-74
2022/06/22 07:21:49;;;;;;;8.40;6.72;;;;;;;17.34;67.58;101220.56;5057857;28;20070;-74
2022/06/22 07:24:26;;;;;;;10.73;6.57;;;;;;;17.40;67.60;101222.91;5062863;28;20042;-75
2022/06/22 07:27:09;;;;;;;7.57;6.35;;;;;;;17.48;66.55;101211.16;5062498;28;20032;-75
2022/06/22 07:29:50;;;;;;;7.88;6.00;;;;;;;17.55;67.62;101217.81;5060979;28;20032;-75
2022/06/22 07:32:32;;;;;;;9.32;6.40;;;;;;;17.58;66.41;101215.06;5061283;28;20556;-74
2022/06/22 07:35:15;;;;;;;10.07;6.55;;;;;;;17.59;65.88;101216.75;5059114;28;20379;-75
2022/06/22 07:37:49;;;;;;;8.88;5.75;;;;;;;17.62;65.44;101210.47;5060577;28;20025;-75
2022/06/22 07:40:20;;;;;;;9.82;6.25;;;;;;;17.65;66.61;101203.28;5061428;28;20020;-74
2022/06/22 07:42:48;;;;;;;8.32;5.50;;;;;;;17.69;65.84;101204.84;5060224;28;20075;-74
2022/06/22 07:45:16;;;;;;;7.28;5.05;;;;;;;17.70;64.90;101198.66;5066623;28;20028;-75
2022/06/22 07:47:57;;;;;;;6.88;5.15;;;;;;;17.70;64.34;101195.16;5062655;28;20032;-75
2022/06/22 07:50:33;;;;;;;6.85;4.25;;;;;;;17.71;64.64;101202.13;5063963;28;20036;-74
2022/06/22 07:53:25;;;;;;;6.75;4.10;;;;;;;17.72;64.30;101202.06;5065164;28;20035;-75
2022/06/22 07:56:06;;;;;;;4.80;4.10;;;;;;;17.77;62.71;101208.84;5062588;28;20451;-74
2022/06/22 07:58:39;;;;;;;;;;;;;;;17.81;64.81;101210.41;5062967;28;20040;-74
2022/06/22 08:01:15;;;;;;;6.30;3.90;;;;;;;17.81;62.33;101206.00;5060648;28;20015;-74
2022/06/22 08:03:48;;;;;;;9.18;4.03;;;;;;;17.85;61.96;101211.97;5065953;28;20125;-74
2022/06/22 08:06:19;;;;;;;6.57;3.92;;;;;;;17.87;62.26;101218.00;5060771;28;20059;-75
2022/06/22 08:09:07;;;;;;;6.03;4.30;;;;;;;17.91;64.47;101222.19;5062933;28;20039;-75
2022/06/22 08:11:39;;;;;;;6.93;4.40;;;;;;;17.92;63.68;101215.13;5062957;28;20402;-75
2022/06/22 08:14:17;;;;;;;6.60;3.92;;;;;;;17.92;61.49;101218.63;5065771;28;20365;-75
2022/06/22 08:16:48;;;;;;;8.00;4.20;;;;;;;17.94;62.25;101222.00;5063390;28;20127;-75
2022/06/22 08:19:14;;;;;;;7.05;4.05;;;;;;;17.95;61.26;101220.25;5064064;28;20438;-74
2022/06/22 08:21:44;;;;;;;5.22;3.60;;;;;;;17.96;62.14;101225.41;5064060;28;20028;-75
2022/06/22 08:24:12;;;;;;;6.20;3.50;;;;;;;17.98;62.67;101220.97;5066571;28;20067;-74
2022/06/22 08:26:38;;;;;;;5.85;3.35;;;;;;;18.03;62.48;101221.59;5059999;28;20039;-74
2022/06/22 08:29:04;;;;;;;5.00;3.42;;;;;;;18.11;61.35;101226.47;5065069;28;20031;-75
2022/06/22 08:31:49;;;;;;;4.97;3.40;;;;;;;18.18;61.45;101235.75;5065369;28;20111;-74
2022/06/22 08:34:19;;;;;;;6.20;3.28;;;;;;;18.25;60.96;101236.28;5063214;28;20021;-75
2022/06/22 08:36:51;;;;;;;6.55;3.40;;;;;;;18.34;60.17;101233.16;5062610;28;20102;-74
2022/06/22 08:39:29;;;;;;;5.10;3.15;;;;;;;18.43;60.38;101237.09;5061137;28;20043;-75
2022/06/22 08:42:21;;;;;;;5.15;3.30;;;;;;;18.52;60.79;101227.84;5062867;28;20036;-75
2022/06/22 08:44:57;;;;;;;4.20;2.92;;;;;;;18.59;58.94;101228.38;5062455;28;20036;-74
2022/06/22 08:47:39;;;;;;;5.95;2.80;;;;;;;18.66;59.30;101222.69;5064015;28;20020;-74
2022/06/22 08:50:21;;;;;;;5.00;3.10;;;;;;;18.74;59.82;101227.53;5066219;28;20039;-74
2022/06/22 08:52:52;;;;;;;4.97;3.00;;;;;;;18.83;58.35;101230.63;5064679;28;20032;-74
2022/06/22 08:55:52;;;;;;;4.07;2.72;;;;;;;18.92;59.41;101236.25;5065189;28;20528;-75
2022/06/22 08:58:40;;;;;;;4.03;2.47;;;;;;;19.03;56.97;101237.47;5062217;28;20040;-75
2022/06/22 09:01:22;;;;;;;4.82;2.50;;;;;;;19.06;56.98;101224.97;5064309;28;20388;-74
2022/06/22 09:04:01;;;;;;;6.15;2.63;;;;;;;19.09;56.35;101227.44;5062115;28;20063;-75
2022/06/22 09:06:56;;;;;;;4.60;2.95;;;;;;;19.15;56.78;101220.94;5063406;28;20371;-75
2022/06/22 09:10:04;;;;;;;4.40;2.70;;;;;;;19.21;57.08;101215.34;5063705;28;20036;-75
2022/06/22 09:13:03;;;;;;;4.53;2.10;;;;;;;19.26;56.89;101223.00;5062959;28;20041;-75
2022/06/22 09:15:37;;;;;;;5.13;2.58;;;;;;;19.35;55.39;101229.53;5063783;28;20107;-74
2022/06/22 09:18:05;;;;;;;3.40;2.60;;;;;;;19.39;55.93;101229.28;5061765;28;20101;-75
2022/06/22 09:20:55;;;;;;;4.10;2.50;;;;;;;19.42;54.12;101230.91;5065047;28;20217;-74
2022/06/22 09:23:40;;;;;;;5.88;2.63;;;;;;;19.45;55.89;101233.38;5061441;28;20223;-75
2022/06/22 09:26:27;;;;;;;4.25;2.47;;;;;;;19.48;54.28;101238.44;5060519;28;20033;-75
2022/06/22 09:29:08;;;;;;;4.53;2.53;;;;;;;19.52;54.15;101237.34;5064578;28;20038;-75
2022/06/22 09:31:55;;;;;;;4.93;2.10;;;;;;;19.55;55.15;101242.44;5063000;28;20032;-75
2022/06/22 09:34:40;;;;;;;4.75;2.47;;;;;;;19.60;52.19;101241.34;5066822;28;20119;-75
2022/06/22 09:37:25;;;;;;;3.08;2.20;;;;;;;19.67;54.58;101238.25;5066694;28;20054;-75
2022/06/22 09:40:15;;;;;;;5.03;2.33;;;;;;;19.75;54.11;101245.72;5066510;28;20028;-75
2022/06/22 09:43:03;;;;;;;4.45;2.30;;;;;;;19.80;54.30;101253.38;5065072;28;20029;-75
2022/06/22 09:45:46;;;;;;;5.95;2.80;;;;;;;19.84;54.89;101239.91;5065782;28;20027;-75
2022/06/22 09:48:46;;;;;;;4.25;2.58;;;;;;;19.93;53.85;101245.63;5063107;28;20051;-75
2022/06/22 09:51:21;;;;;;;6.28;3.17;;;;;;;19.96;53.16;101238.38;5062367;28;20028;-75
2022/06/22 09:53:55;;;;;;;4.18;2.50;;;;;;;19.99;52.20;101237.31;5062872;28;20032;-75
2022/06/22 09:56:45;;;;;;;4.88;2.38;;;;;;;20.02;52.72;101234.50;5066852;28;20032;-75
2022/06/22 09:59:27;;;;;;;4.03;1.92;;;;;;;20.05;51.97;101236.13;5062987;28;20082;-75
2022/06/22 10:01:55;;;;;;;2.63;1.60;;;;;;;20.09;49.10;101241.13;5062421;28;20040;-75
2022/06/22 10:04:58;;;;;;;5.03;1.60;;;;;;;20.15;50.18;101243.38;5065216;28;20035;-75
2022/06/22 10:07:41;;;;;;;3.65;1.70;;;;;;;20.19;48.78;101237.94;5066386;28;20032;-75
2022/06/22 10:10:24;;;;;;;5.53;1.75;;;;;;;20.22;50.40;101238.63;5061282;28;20107;-75
2022/06/22 10:13:28;;;;;;;3.88;1.48;;;;;;;20.24;50.94;101233.22;5062261;28;20447;-75
2022/06/22 10:16:07;;;;;;;3.30;1.67;;;;;;;20.25;50.85;101232.28;5066214;28;20029;-75
2022/06/22 10:18:48;;;;;;;3.47;2.00;;;;;;;20.26;49.88;101232.19;5065287;28;20036;-75
2022/06/22 10:21:35;;;;;;;4.38;1.80;;;;;;;20.30;50.86;101227.59;5064313;28;20032;-75
2022/06/22 10:24:23;;;;;;;3.55;1.65;;;;;;;20.39;51.17;101220.88;5060250;28;20396;-75
2022/06/22 10:27:24;;;;;;;3.95;1.83;;;;;;;20.44;50.85;101227.59;5063194;28;20044;-75
2022/06/22 10:30:08;;;;;;;3.38;2.40;;;;;;;20.49;49.69;101222.00;5065814;28;20059;-75
2022/06/22 10:32:59;;;;;;;4.18;2.28;;;;;;;20.53;50.07;101214.72;5062032;28;20031;-75
2022/06/22 10:35:24;;;;;;;6.53;2.43;;;;;;;20.59;51.12;101220.47;5063849;28;20493;-75
2022/06/22 10:38:14;;;;;;;5.00;2.35;;;;;;;20.63;50.44;101202.66;5063568;28;20024;-75
2022/06/22 10:47:25;;;;;;;5.20;2.08;;;;;;;20.76;49.68;101198.31;5058074;28;20048;-75
2022/06/22 10:50:22;;;;;;;7.43;2.00;;;;;;;20.76;49.71;101189.53;5062929;28;20028;-75
2022/06/22 10:53:06;;;;;;;4.18;2.10;;;;;;;20.81;49.88;101195.38;5062016;28;20036;-75
2022/06/22 10:55:55;;;;;;;3.08;2.20;;;;;;;20.86;48.60;101195.06;5060337;28;20033;-76
2022/06/22 10:58:29;;;;;;;3.95;1.98;;;;;;;20.88;48.87;101191.41;5059449;28;20461;-75
2022/06/22 11:01:09;;;;;;;3.03;1.70;;;;;;;20.91;49.56;101196.50;5060975;28;20034;-75
2022/06/22 11:03:58;;;;;;;3.83;2.05;;;;;;;20.92;48.26;101194.69;5059428;28;20055;-75
2022/06/22 11:06:36;;;;;;;2.67;1.85;;;;;;;20.93;46.77;101196.41;5063326;28;20033;-75
2022/06/22 11:09:20;;;;;;;1.98;1.63;;;;;;;20.92;48.55;101194.69;5062185;28;20039;-75
2022/06/22 11:12:05;;;;;;;3.30;1.90;;;;;;;20.91;49.00;101204.44;5059025;28;20044;-75
2022/06/22 11:14:45;;;;;;;3.05;1.88;;;;;;;20.96;49.08;101197.97;5030862;28;20501;-74
2022/06/22 11:17:29;;;;;;;3.33;2.15;;;;;;;20.98;48.33;101196.09;5060083;28;20048;-75
2022/06/22 11:19:57;;;;;;;5.00;1.80;;;;;;;21.02;47.45;101194.94;5062738;28;20068;-75
2022/06/22 11:22:40;;;;;;;3.30;2.20;;;;;;;21.01;47.43;101194.09;5060793;28;20032;-75
2022/06/22 11:30:48;;;;;;;2.78;1.80;;;;;;;21.03;50.33;101191.38;5058325;28;20045;-75
2022/06/22 11:31:42;;;;;;;3.20;1.92;;;;;;;21.14;46.33;101194.16;5052832;28;20489;-75
2022/06/22 11:34:35;;;;;;;4.75;2.10;;;;;;;21.17;47.92;101193.97;5054570;28;20032;-75
2022/06/22 11:37:32;;;;;;;3.92;1.85;;;;;;;21.24;48.15;101202.34;5055123;28;20540;-75
2022/06/22 11:40:22;;;;;;;3.15;1.70;;;;;;;21.28;48.54;101200.34;5044816;28;20056;-75
2022/06/22 11:43:16;;;;;;;4.60;1.70;;;;;;;21.28;46.88;101198.56;5056496;28;20036;-75
2022/06/22 11:46:18;;;;;;;3.63;1.88;;;;;;;21.29;47.23;101204.69;5058464;28;20413;-75
2022/06/22 11:48:59;;;;;;;2.85;1.50;;;;;;;21.28;46.81;101208.28;5058674;28;20227;-75
2022/06/22 11:51:50;;;;;;;4.53;1.85;;;;;;;21.26;45.99;101204.91;5061885;28;20036;-75
2022/06/22 11:54:51;;;;;;;2.78;1.73;;;;;;;21.28;46.98;101205.63;5059562;28;20063;-75
2022/06/22 11:57:59;;;;;;;4.30;1.55;;;;;;;21.33;46.61;101207.03;5061810;28;20072;-75
2022/06/22 12:01:02;;;;;;;5.05;1.40;;;;;;;21.41;47.18;101200.38;5058212;28;20074;-75
2022/06/22 12:03:47;;;;;;;3.92;1.50;;;;;;;21.48;47.33;101194.56;5061424;28;20039;-75
2022/06/22 12:06:25;;;;;;;2.30;1.40;;;;;;;21.55;46.59;101194.19;5055843;28;20078;-76
2022/06/22 12:09:14;;;;;;;3.50;1.27;;;;;;;21.60;45.31;101198.25;5058657;28;20158;-76
2022/06/22 12:11:51;;;;;;;2.10;1.42;;;;;;;21.65;44.45;101190.84;5059405;28;20024;-76
2022/06/22 12:17:49;;;;;;;2.63;1.42;;;;;;;21.73;44.96;101190.34;5052827;28;20085;-75
2022/06/22 12:20:42;;;;;;;2.33;1.60;;;;;;;21.75;44.87;101187.56;5060166;28;20498;-75
2022/06/22 12:23:36;;;;;;;1.58;1.25;;;;;;;21.76;44.21;101183.97;5061509;28;20055;-75
2022/06/22 12:26:36;;;;;;;3.10;1.58;;;;;;;21.79;45.02;101175.81;5061177;28;20095;-75
2022/06/22 12:29:20;;;;;;;3.17;1.33;;;;;;;21.84;42.67;101176.38;5059082;28;20162;-75
2022/06/22 12:31:50;;;;;;;2.42;1.30;;;;;;;21.86;44.56;101174.47;5055933;28;20078;-75
2022/06/22 12:34:35;;;;;;;2.53;1.40;;;;;;;21.86;43.07;101166.53;5057283;28;20097;-75
2022/06/22 12:37:08;;;;;;;1.63;1.27;;;;;;;21.88;41.11;101161.09;5060673;28;20082;-75
2022/06/22 12:39:42;;;;;;;2.28;1.35;;;;;;;21.90;43.62;101159.19;5063015;28;20032;-75